KFTW

Fort Worth Meacham International Airport

Fort Worth, Texas, USA
METAR KFTW 180653Z 09005KT 10SM CLR 11/08 A3017 RMK AO2 SLP212 T01110078
Observed Flight Rules
Feb-18 @ 06:53 UTC (19 minutes ago) Visual Flight Rules
Wind Visibility Clouds
90° at 5 knots 10 miles
  • Clear skies
Temperatures Readings
Current 11°C / 52°F
Dewpoint 8°C / 46°F
Humidity 82%
Altimeter 30.17" Hg
Pressure 1021.2 hPa
Elevation 214
METAR KFTW 180653Z 09005KT 10SM CLR 11/08 A3017 RMK AO2 SLP212 T01110078
Observed Flight Rules
Feb-18 @ 06:53 UTC
(19 minutes ago)
VFR
Wind Visibility
90° at 5 knots 10 miles
Clouds
  • Clear skies
Temperature Dewpoint
11°C / 52°F 8°C / 46°F
Humidity Altimeter Pressure
82% 30.17" Hg 1021.2 hPa